sensor_id;sensor_type;location;lat;lon;timestamp;pressure;altitude;pressure_sealevel;temperature;humidity
42385;BME280;28042;43.986;22.860;2023-01-29T00:00:38;101584.31;;;2.07;100.00
42385;BME280;28042;43.986;22.860;2023-01-29T00:03:03;101588.97;;;2.05;100.00
42385;BME280;28042;43.986;22.860;2023-01-29T00:05:29;101591.53;;;2.06;100.00
42385;BME280;28042;43.986;22.860;2023-01-29T00:07:55;101584.56;;;2.04;100.00
42385;BME280;28042;43.986;22.860;2023-01-29T00:10:21;101596.53;;;1.99;100.00
42385;BME280;28042;43.986;22.860;2023-01-29T00:12:46;101595.59;;;2.01;100.00
42385;BME280;28042;43.986;22.860;2023-01-29T00:15:11;101599.22;;;1.99;100.00
42385;BME280;28042;43.986;22.860;2023-01-29T00:17:36;101599.22;;;1.99;100.00
42385;BME280;28042;43.986;22.860;2023-01-29T00:20:02;101603.66;;;2.01;100.00
42385;BME280;28042;43.986;22.860;2023-01-29T00:22:28;101617.09;;;2.01;100.00
42385;BME280;28042;43.986;22.860;2023-01-29T00:24:54;101611.72;;;2.01;100.00
42385;BME280;28042;43.986;22.860;2023-01-29T00:27:19;101617.59;;;1.94;100.00
42385;BME280;28042;43.986;22.860;2023-01-29T00:29:44;101608.53;;;1.95;100.00
42385;BME280;28042;43.986;22.860;2023-01-29T00:32:30;101622.72;;;1.97;100.00
42385;BME280;28042;43.986;22.860;2023-01-29T00:34:56;101621.50;;;2.02;100.00
42385;BME280;28042;43.986;22.860;2023-01-29T00:37:21;101620.75;;;1.99;100.00
42385;BME280;28042;43.986;22.860;2023-01-29T00:39:46;101629.84;;;2.10;100.00
42385;BME280;28042;43.986;22.860;2023-01-29T00:42:12;101624.94;;;2.15;100.00
42385;BME280;28042;43.986;22.860;2023-01-29T00:44:55;101631.06;;;2.17;100.00
42385;BME280;28042;43.986;22.860;2023-01-29T00:47:24;101630.94;;;2.18;100.00
42385;BME280;28042;43.986;22.860;2023-01-29T00:49:57;101636.56;;;2.15;100.00
42385;BME280;28042;43.986;22.860;2023-01-29T00:52:23;101636.22;;;2.20;100.00
42385;BME280;28042;43.986;22.860;2023-01-29T00:54:48;101637.41;;;2.16;100.00
42385;BME280;28042;43.986;22.860;2023-01-29T00:57:14;101635.94;;;2.12;100.00
42385;BME280;28042;43.986;22.860;2023-01-29T00:59:39;101639.00;;;2.07;100.00
42385;BME280;28042;43.986;22.860;2023-01-29T01:02:04;101639.25;;;2.04;100.00
42385;BME280;28042;43.986;22.860;2023-01-29T01:04:48;101640.81;;;2.07;100.00
42385;BME280;28042;43.986;22.860;2023-01-29T01:07:13;101644.28;;;2.09;100.00
42385;BME280;28042;43.986;22.860;2023-01-29T01:09:38;101644.00;;;2.01;100.00
42385;BME280;28042;43.986;22.860;2023-01-29T01:12:22;101649.41;;;2.01;100.00
42385;BME280;28042;43.986;22.860;2023-01-29T01:14:48;101647.19;;;2.06;100.00
42385;BME280;28042;43.986;22.860;2023-01-29T01:17:13;101651.13;;;2.13;100.00
42385;BME280;28042;43.986;22.860;2023-01-29T01:19:39;101652.09;;;2.12;100.00
42385;BME280;28042;43.986;22.860;2023-01-29T01:22:04;101646.00;;;2.10;100.00
42385;BME280;28042;43.986;22.860;2023-01-29T01:24:30;101639.63;;;2.11;100.00
42385;BME280;28042;43.986;22.860;2023-01-29T01:26:55;101650.59;;;2.08;100.00
42385;BME280;28042;43.986;22.860;2023-01-29T01:29:21;101647.91;;;2.08;100.00
42385;BME280;28042;43.986;22.860;2023-01-29T01:31:46;101649.66;;;2.09;100.00
42385;BME280;28042;43.986;22.860;2023-01-29T01:34:11;101655.78;;;2.11;100.00
42385;BME280;28042;43.986;22.860;2023-01-29T01:36:37;101650.59;;;2.08;100.00
42385;BME280;28042;43.986;22.860;2023-01-29T01:39:02;101643.78;;;2.15;100.00
42385;BME280;28042;43.986;22.860;2023-01-29T01:41:28;101656.75;;;2.10;100.00
42385;BME280;28042;43.986;22.860;2023-01-29T01:43:57;101652.34;;;2.09;100.00
42385;BME280;28042;43.986;22.860;2023-01-29T01:46:24;101654.91;;;2.10;100.00
42385;BME280;28042;43.986;22.860;2023-01-29T01:49:04;101651.25;;;2.11;100.00
42385;BME280;28042;43.986;22.860;2023-01-29T01:51:30;101646.72;;;2.12;100.00
42385;BME280;28042;43.986;22.860;2023-01-29T01:54:02;101657.47;;;2.12;100.00
42385;BME280;28042;43.986;22.860;2023-01-29T01:56:29;101655.03;;;2.09;100.00
42385;BME280;28042;43.986;22.860;2023-01-29T01:59:02;101655.78;;;2.11;100.00
42385;BME280;28042;43.986;22.860;2023-01-29T02:01:29;101654.28;;;2.07;100.00
42385;BME280;28042;43.986;22.860;2023-01-29T02:03:57;101656.13;;;2.06;100.00
42385;BME280;28042;43.986;22.860;2023-01-29T02:06:42;101650.00;;;2.04;100.00
42385;BME280;28042;43.986;22.860;2023-01-29T02:09:38;101651.84;;;2.04;100.00
42385;BME280;28042;43.986;22.860;2023-01-29T02:12:06;101656.72;;;1.98;100.00
42385;BME280;28042;43.986;22.860;2023-01-29T02:14:31;101662.34;;;1.95;100.00
42385;BME280;28042;43.986;22.860;2023-01-29T02:17:01;101658.19;;;1.91;100.00
42385;BME280;28042;43.986;22.860;2023-01-29T02:22:16;101660.16;;;2.01;100.00
42385;BME280;28042;43.986;22.860;2023-01-29T02:25:02;101663.78;;;1.99;100.00
42385;BME280;28042;43.986;22.860;2023-01-29T02:30:36;101661.00;;;2.01;100.00
42385;BME280;28042;43.986;22.860;2023-01-29T02:33:07;101661.88;;;2.02;100.00
42385;BME280;28042;43.986;22.860;2023-01-29T02:35:42;101662.59;;;2.04;100.00
42385;BME280;28042;43.986;22.860;2023-01-29T02:38:20;101661.88;;;2.02;100.00
42385;BME280;28042;43.986;22.860;2023-01-29T02:48:37;101659.53;;;1.97;100.00
42385;BME280;28042;43.986;22.860;2023-01-29T02:51:04;101661.09;;;1.88;100.00
42385;BME280;28042;43.986;22.860;2023-01-29T02:56:02;101666.34;;;1.90;100.00
42385;BME280;28042;43.986;22.860;2023-01-29T03:01:11;101667.41;;;1.76;100.00
42385;BME280;28042;43.986;22.860;2023-01-29T03:03:42;101665.19;;;1.70;100.00
42385;BME280;28042;43.986;22.860;2023-01-29T03:06:31;101666.28;;;1.67;100.00
42385;BME280;28042;43.986;22.860;2023-01-29T03:08:56;101667.59;;;1.62;100.00
42385;BME280;28042;43.986;22.860;2023-01-29T03:11:23;101661.25;;;1.63;100.00
42385;BME280;28042;43.986;22.860;2023-01-29T03:16:24;101655.88;;;1.63;100.00
42385;BME280;28042;43.986;22.860;2023-01-29T03:19:08;101663.94;;;1.63;100.00
42385;BME280;28042;43.986;22.860;2023-01-29T03:21:38;101670.28;;;1.62;100.00
42385;BME280;28042;43.986;22.860;2023-01-29T03:27:25;101672.69;;;1.54;100.00
42385;BME280;28042;43.986;22.860;2023-01-29T03:30:10;101676.13;;;1.56;100.00
42385;BME280;28042;43.986;22.860;2023-01-29T03:32:55;101667.78;;;1.48;100.00
42385;BME280;28042;43.986;22.860;2023-01-29T03:35:24;101676.38;;;1.53;100.00
42385;BME280;28042;43.986;22.860;2023-01-29T03:38:00;101672.28;;;1.47;100.00
42385;BME280;28042;43.986;22.860;2023-01-29T03:40:28;101676.81;;;1.47;100.00
42385;BME280;28042;43.986;22.860;2023-01-29T03:48:10;101672.53;;;1.44;100.00
42385;BME280;28042;43.986;22.860;2023-01-29T03:50:56;101671.22;;;1.50;100.00
42385;BME280;28042;43.986;22.860;2023-01-29T03:53:41;101675.75;;;1.49;100.00
42385;BME280;28042;43.986;22.860;2023-01-29T03:58:59;101671.56;;;1.45;100.00
42385;BME280;28042;43.986;22.860;2023-01-29T04:01:36;101667.16;;;1.44;100.00
42385;BME280;28042;43.986;22.860;2023-01-29T04:04:07;101677.59;;;1.49;100.00
42385;BME280;28042;43.986;22.860;2023-01-29T04:06:35;101674.66;;;1.52;100.00
42385;BME280;28042;43.986;22.860;2023-01-29T04:09:02;101671.84;;;1.53;100.00
42385;BME280;28042;43.986;22.860;2023-01-29T04:11:29;101668.06;;;1.56;100.00
42385;BME280;28042;43.986;22.860;2023-01-29T04:13:55;101674.81;;;1.61;100.00
42385;BME280;28042;43.986;22.860;2023-01-29T04:16:23;101667.28;;;1.66;100.00
42385;BME280;28042;43.986;22.860;2023-01-29T04:18:51;101678.63;;;1.70;100.00
42385;BME280;28042;43.986;22.860;2023-01-29T04:21:18;101677.78;;;1.69;100.00
42385;BME280;28042;43.986;22.860;2023-01-29T04:23:43;101686.47;;;1.73;100.00
42385;BME280;28042;43.986;22.860;2023-01-29T04:28:53;101688.69;;;1.79;100.00
42385;BME280;28042;43.986;22.860;2023-01-29T04:31:23;101689.16;;;1.73;100.00
42385;BME280;28042;43.986;22.860;2023-01-29T04:36:45;101692.31;;;1.67;100.00
42385;BME280;28042;43.986;22.860;2023-01-29T04:52:07;101699.22;;;1.82;100.00
42385;BME280;28042;43.986;22.860;2023-01-29T04:57:15;101709.13;;;1.82;100.00
42385;BME280;28042;43.986;22.860;2023-01-29T04:59:44;101713.16;;;1.76;100.00
42385;BME280;28042;43.986;22.860;2023-01-29T05:02:12;101719.03;;;1.81;100.00
42385;BME280;28042;43.986;22.860;2023-01-29T05:04:38;101716.91;;;1.74;100.00
42385;BME280;28042;43.986;22.860;2023-01-29T05:07:04;101719.13;;;1.80;100.00
42385;BME280;28042;43.986;22.860;2023-01-29T05:09:31;101713.59;;;1.70;100.00
42385;BME280;28042;43.986;22.860;2023-01-29T05:11:57;101720.41;;;1.63;100.00
42385;BME280;28042;43.986;22.860;2023-01-29T05:14:24;101723.47;;;1.58;100.00
42385;BME280;28042;43.986;22.860;2023-01-29T05:16:51;101722.81;;;1.55;100.00
42385;BME280;28042;43.986;22.860;2023-01-29T05:19:18;101717.44;;;1.55;100.00
42385;BME280;28042;43.986;22.860;2023-01-29T05:21:44;101716.56;;;1.54;100.00
42385;BME280;28042;43.986;22.860;2023-01-29T05:24:11;101727.69;;;1.50;100.00
42385;BME280;28042;43.986;22.860;2023-01-29T05:26:38;101721.78;;;1.45;100.00
42385;BME280;28042;43.986;22.860;2023-01-29T05:29:22;101730.22;;;1.40;100.00
42385;BME280;28042;43.986;22.860;2023-01-29T05:31:48;101730.66;;;1.34;100.00
42385;BME280;28042;43.986;22.860;2023-01-29T05:34:13;101731.75;;;1.31;100.00
42385;BME280;28042;43.986;22.860;2023-01-29T05:36:38;101732.13;;;1.38;100.00
42385;BME280;28042;43.986;22.860;2023-01-29T05:39:03;101736.88;;;1.34;100.00
42385;BME280;28042;43.986;22.860;2023-01-29T05:41:29;101739.03;;;1.29;100.00
42385;BME280;28042;43.986;22.860;2023-01-29T05:43:54;101728.53;;;1.26;100.00
42385;BME280;28042;43.986;22.860;2023-01-29T05:46:19;101741.22;;;1.24;100.00
42385;BME280;28042;43.986;22.860;2023-01-29T05:48:45;101732.41;;;1.22;100.00
42385;BME280;28042;43.986;22.860;2023-01-29T05:51:10;101737.38;;;1.16;100.00
42385;BME280;28042;43.986;22.860;2023-01-29T05:53:35;101743.84;;;1.13;100.00
42385;BME280;28042;43.986;22.860;2023-01-29T05:56:01;101729.88;;;1.08;100.00
42385;BME280;28042;43.986;22.860;2023-01-29T05:58:26;101740.59;;;1.08;100.00
42385;BME280;28042;43.986;22.860;2023-01-29T06:00:52;101743.72;;;1.02;100.00
42385;BME280;28042;43.986;22.860;2023-01-29T06:03:17;101753.31;;;1.06;100.00
42385;BME280;28042;43.986;22.860;2023-01-29T06:05:42;101750.06;;;1.01;100.00
42385;BME280;28042;43.986;22.860;2023-01-29T06:08:08;101753.72;;;1.00;100.00
42385;BME280;28042;43.986;22.860;2023-01-29T06:10:33;101761.06;;;0.98;100.00
42385;BME280;28042;43.986;22.860;2023-01-29T06:12:58;101763.19;;;0.93;100.00
42385;BME280;28042;43.986;22.860;2023-01-29T06:15:24;101759.53;;;0.94;100.00
42385;BME280;28042;43.986;22.860;2023-01-29T06:17:52;101774.16;;;0.90;100.00
42385;BME280;28042;43.986;22.860;2023-01-29T06:20:17;101766.09;;;0.90;100.00
42385;BME280;28042;43.986;22.860;2023-01-29T06:22:43;101771.78;;;0.98;100.00
42385;BME280;28042;43.986;22.860;2023-01-29T06:25:08;101779.13;;;0.96;100.00
42385;BME280;28042;43.986;22.860;2023-01-29T06:27:33;101782.53;;;0.98;100.00
42385;BME280;28042;43.986;22.860;2023-01-29T06:29:59;101782.31;;;1.01;100.00
42385;BME280;28042;43.986;22.860;2023-01-29T06:32:24;101781.78;;;1.08;100.00
42385;BME280;28042;43.986;22.860;2023-01-29T06:34:49;101790.91;;;1.06;100.00
42385;BME280;28042;43.986;22.860;2023-01-29T06:37:15;101790.91;;;1.06;100.00
42385;BME280;28042;43.986;22.860;2023-01-29T06:39:40;101794.66;;;1.03;100.00
42385;BME280;28042;43.986;22.860;2023-01-29T06:42:05;101796.50;;;1.03;100.00
42385;BME280;28042;43.986;22.860;2023-01-29T06:44:31;101798.19;;;1.04;100.00
42385;BME280;28042;43.986;22.860;2023-01-29T06:46:56;101807.16;;;1.04;100.00
42385;BME280;28042;43.986;22.860;2023-01-29T06:49:21;101804.84;;;1.11;100.00
42385;BME280;28042;43.986;22.860;2023-01-29T06:51:47;101803.25;;;1.08;100.00
42385;BME280;28042;43.986;22.860;2023-01-29T06:54:12;101812.72;;;1.14;100.00
42385;BME280;28042;43.986;22.860;2023-01-29T06:56:37;101817.13;;;1.15;100.00
42385;BME280;28042;43.986;22.860;2023-01-29T06:59:03;101820.97;;;1.24;100.00
42385;BME280;28042;43.986;22.860;2023-01-29T07:01:28;101820.31;;;1.33;100.00
42385;BME280;28042;43.986;22.860;2023-01-29T07:03:54;101820.75;;;1.39;100.00
42385;BME280;28042;43.986;22.860;2023-01-29T07:06:19;101810.06;;;1.51;100.00
42385;BME280;28042;43.986;22.860;2023-01-29T07:08:44;101813.56;;;1.64;100.00
42385;BME280;28042;43.986;22.860;2023-01-29T07:11:10;101816.53;;;1.72;100.00
42385;BME280;28042;43.986;22.860;2023-01-29T07:13:35;101824.91;;;1.80;100.00
42385;BME280;28042;43.986;22.860;2023-01-29T07:16:01;101813.25;;;1.92;100.00
42385;BME280;28042;43.986;22.860;2023-01-29T07:18:27;101810.34;;;2.07;100.00
42385;BME280;28042;43.986;22.860;2023-01-29T07:20:53;101819.72;;;2.25;100.00
42385;BME280;28042;43.986;22.860;2023-01-29T07:23:18;101813.66;;;2.34;100.00
42385;BME280;28042;43.986;22.860;2023-01-29T07:25:43;101813.84;;;2.55;100.00
42385;BME280;28042;43.986;22.860;2023-01-29T07:28:09;101822.59;;;2.70;100.00
42385;BME280;28042;43.986;22.860;2023-01-29T07:30:34;101817.09;;;2.94;100.00
42385;BME280;28042;43.986;22.860;2023-01-29T07:33:03;101811.59;;;3.06;100.00
42385;BME280;28042;43.986;22.860;2023-01-29T07:35:29;101818.69;;;3.30;100.00
42385;BME280;28042;43.986;22.860;2023-01-29T07:37:55;101817.34;;;3.35;100.00
42385;BME280;28042;43.986;22.860;2023-01-29T07:40:20;101807.41;;;3.36;100.00
42385;BME280;28042;43.986;22.860;2023-01-29T07:42:45;101807.19;;;3.39;100.00
42385;BME280;28042;43.986;22.860;2023-01-29T07:45:11;101811.22;;;3.45;100.00
42385;BME280;28042;43.986;22.860;2023-01-29T07:47:36;101816.00;;;3.41;100.00
42385;BME280;28042;43.986;22.860;2023-01-29T07:50:02;101822.84;;;3.45;100.00
42385;BME280;28042;43.986;22.860;2023-01-29T07:52:28;101831.66;;;3.47;100.00
42385;BME280;28042;43.986;22.860;2023-01-29T07:54:53;101832.16;;;3.52;100.00
42385;BME280;28042;43.986;22.860;2023-01-29T07:57:19;101826.06;;;3.50;100.00
42385;BME280;28042;43.986;22.860;2023-01-29T07:59:44;101827.66;;;3.42;100.00
42385;BME280;28042;43.986;22.860;2023-01-29T08:02:09;101830.59;;;3.50;100.00
42385;BME280;28042;43.986;22.860;2023-01-29T08:04:35;101839.53;;;3.50;100.00
42385;BME280;28042;43.986;22.860;2023-01-29T08:07:00;101834.38;;;3.36;100.00
42385;BME280;28042;43.986;22.860;2023-01-29T08:09:25;101841.25;;;3.40;100.00
42385;BME280;28042;43.986;22.860;2023-01-29T08:11:50;101842.47;;;3.47;100.00
42385;BME280;28042;43.986;22.860;2023-01-29T08:14:16;101832.16;;;3.52;100.00
42385;BME280;28042;43.986;22.860;2023-01-29T08:16:41;101830.31;;;3.64;100.00
42385;BME280;28042;43.986;22.860;2023-01-29T08:19:06;101835.19;;;3.81;100.00
42385;BME280;28042;43.986;22.860;2023-01-29T08:21:32;101827.41;;;3.99;100.00
42385;BME280;28042;43.986;22.860;2023-01-29T08:23:57;101836.06;;;4.14;100.00
42385;BME280;28042;43.986;22.860;2023-01-29T08:26:22;101833.72;;;4.20;100.00
42385;BME280;28042;43.986;22.860;2023-01-29T08:28:50;101840.06;;;4.31;100.00
42385;BME280;28042;43.986;22.860;2023-01-29T08:31:16;101840.06;;;4.51;100.00
42385;BME280;28042;43.986;22.860;2023-01-29T08:33:41;101829.50;;;4.80;100.00
42385;BME280;28042;43.986;22.860;2023-01-29T08:36:07;101842.09;;;4.70;98.25
42385;BME280;28042;43.986;22.860;2023-01-29T08:38:33;101842.34;;;4.67;97.31
42385;BME280;28042;43.986;22.860;2023-01-29T08:40:58;101839.63;;;4.67;96.38
42385;BME280;28042;43.986;22.860;2023-01-29T08:43:23;101837.19;;;4.85;95.75
42385;BME280;28042;43.986;22.860;2023-01-29T08:45:49;101832.09;;;4.92;96.12
42385;BME280;28042;43.986;22.860;2023-01-29T08:48:14;101844.69;;;5.02;93.97
42385;BME280;28042;43.986;22.860;2023-01-29T08:50:39;101844.50;;;5.15;93.99
42385;BME280;28042;43.986;22.860;2023-01-29T08:53:06;101842.41;;;4.98;93.11
42385;BME280;28042;43.986;22.860;2023-01-29T08:55:33;101850.75;;;4.95;92.61
42385;BME280;28042;43.986;22.860;2023-01-29T08:57:59;101851.34;;;4.77;92.89
42385;BME280;28042;43.986;22.860;2023-01-29T09:00:24;101851.66;;;4.95;95.66
42385;BME280;28042;43.986;22.860;2023-01-29T09:02:49;101846.09;;;4.97;93.62
42385;BME280;28042;43.986;22.860;2023-01-29T09:05:15;101838.69;;;4.99;93.00
42385;BME280;28042;43.986;22.860;2023-01-29T09:07:40;101843.84;;;5.02;91.25
42385;BME280;28042;43.986;22.860;2023-01-29T09:10:06;101841.59;;;5.07;92.51
42385;BME280;28042;43.986;22.860;2023-01-29T09:12:32;101848.56;;;5.09;91.92
42385;BME280;28042;43.986;22.860;2023-01-29T09:14:57;101848.81;;;5.27;93.77
42385;BME280;28042;43.986;22.860;2023-01-29T09:17:22;101852.78;;;5.23;91.83
42385;BME280;28042;43.986;22.860;2023-01-29T09:19:48;101849.38;;;5.21;90.55
42385;BME280;28042;43.986;22.860;2023-01-29T09:22:13;101839.31;;;5.12;90.12
42385;BME280;28042;43.986;22.860;2023-01-29T09:24:39;101838.00;;;4.97;90.50
42385;BME280;28042;43.986;22.860;2023-01-29T09:27:04;101843.16;;;4.79;90.37
42385;BME280;28042;43.986;22.860;2023-01-29T09:29:30;101842.09;;;4.70;91.14
42385;BME280;28042;43.986;22.860;2023-01-29T09:31:55;101827.59;;;4.71;95.00
42385;BME280;28042;43.986;22.860;2023-01-29T09:34:20;101834.69;;;4.72;94.87
42385;BME280;28042;43.986;22.860;2023-01-29T09:36:46;101828.56;;;4.70;96.00
42385;BME280;28042;43.986;22.860;2023-01-29T09:39:11;101826.97;;;4.68;92.89
42385;BME280;28042;43.986;22.860;2023-01-29T09:44:02;101826.91;;;5.00;93.50
42385;BME280;28042;43.986;22.860;2023-01-29T09:46:34;101825.38;;;5.07;93.88
42385;BME280;28042;43.986;22.860;2023-01-29T09:49:07;101820.16;;;5.15;92.52
42385;BME280;28042;43.986;22.860;2023-01-29T09:51:34;101819.59;;;4.91;92.11
42385;BME280;28042;43.986;22.860;2023-01-29T09:56:57;101809.19;;;4.65;91.73
42385;BME280;28042;43.986;22.860;2023-01-29T09:59:25;101813.88;;;4.63;92.15
42385;BME280;28042;43.986;22.860;2023-01-29T10:06:55;101801.94;;;4.87;89.73
42385;BME280;28042;43.986;22.860;2023-01-29T10:17:43;101780.19;;;5.28;90.44
42385;BME280;28042;43.986;22.860;2023-01-29T10:25:21;101763.78;;;5.80;88.41
42385;BME280;28042;43.986;22.860;2023-01-29T10:27:53;101769.22;;;5.89;87.03
42385;BME280;28042;43.986;22.860;2023-01-29T10:32:46;101757.56;;;6.37;85.47
42385;BME280;28042;43.986;22.860;2023-01-29T10:35:16;101746.16;;;6.24;84.25
42385;BME280;28042;43.986;22.860;2023-01-29T10:37:44;101739.88;;;6.43;84.13
42385;BME280;28042;43.986;22.860;2023-01-29T10:40:17;101744.72;;;6.39;82.72
42385;BME280;28042;43.986;22.860;2023-01-29T10:43:07;101731.03;;;6.31;82.37
42385;BME280;28042;43.986;22.860;2023-01-29T10:58:56;101742.47;;;6.06;85.90
42385;BME280;28042;43.986;22.860;2023-01-29T11:01:23;101743.28;;;5.77;84.28
42385;BME280;28042;43.986;22.860;2023-01-29T11:03:55;101744.97;;;5.59;85.17
42385;BME280;28042;43.986;22.860;2023-01-29T11:06:31;101734.97;;;5.40;85.82
42385;BME280;28042;43.986;22.860;2023-01-29T11:08:59;101734.38;;;5.36;87.17
42385;BME280;28042;43.986;22.860;2023-01-29T11:11:35;101731.78;;;5.25;87.15
42385;BME280;28042;43.986;22.860;2023-01-29T11:14:04;101725.13;;;4.99;86.36
42385;BME280;28042;43.986;22.860;2023-01-29T11:16:42;101731.91;;;4.83;86.80
42385;BME280;28042;43.986;22.860;2023-01-29T11:19:08;101727.34;;;4.84;87.95
42385;BME280;28042;43.986;22.860;2023-01-29T11:21:49;101726.25;;;4.87;88.99
42385;BME280;28042;43.986;22.860;2023-01-29T11:24:15;101717.00;;;4.89;88.83
42385;BME280;28042;43.986;22.860;2023-01-29T11:26:41;101722.50;;;4.78;86.86
42385;BME280;28042;43.986;22.860;2023-01-29T11:31:56;101718.47;;;4.72;87.62
42385;BME280;28042;43.986;22.860;2023-01-29T11:34:23;101716.06;;;4.69;87.58
42385;BME280;28042;43.986;22.860;2023-01-29T11:36:56;101713.22;;;4.71;87.75
42385;BME280;28042;43.986;22.860;2023-01-29T11:39:22;101710.09;;;4.75;87.92
42385;BME280;28042;43.986;22.860;2023-01-29T11:44:33;101708.56;;;4.82;90.52
42385;BME280;28042;43.986;22.860;2023-01-29T11:49:38;101710.28;;;4.83;88.70
42385;BME280;28042;43.986;22.860;2023-01-29T11:52:08;101710.28;;;4.83;89.77
42385;BME280;28042;43.986;22.860;2023-01-29T11:54:38;101714.81;;;4.83;86.10
42385;BME280;28042;43.986;22.860;2023-01-29T11:57:14;101717.34;;;4.75;84.50
42385;BME280;28042;43.986;22.860;2023-01-29T11:59:45;101712.66;;;4.77;84.56
42385;BME280;28042;43.986;22.860;2023-01-29T12:05:02;101705.19;;;4.90;85.49
42385;BME280;28042;43.986;22.860;2023-01-29T12:07:28;101706.84;;;4.81;84.06
42385;BME280;28042;43.986;22.860;2023-01-29T12:09:58;101712.78;;;4.75;82.91
42385;BME280;28042;43.986;22.860;2023-01-29T12:12:31;101702.44;;;4.80;84.16
42385;BME280;28042;43.986;22.860;2023-01-29T12:17:41;101701.97;;;4.75;83.89
42385;BME280;28042;43.986;22.860;2023-01-29T12:20:11;101711.13;;;4.84;85.35
42385;BME280;28042;43.986;22.860;2023-01-29T12:22:44;101710.94;;;4.76;84.00
42385;BME280;28042;43.986;22.860;2023-01-29T12:27:39;101704.94;;;4.63;83.55
42385;BME280;28042;43.986;22.860;2023-01-29T12:30:11;101703.31;;;4.60;85.00
42385;BME280;28042;43.986;22.860;2023-01-29T12:40:13;101701.63;;;4.59;84.27
42385;BME280;28042;43.986;22.860;2023-01-29T12:42:40;101702.25;;;4.72;85.33
42385;BME280;28042;43.986;22.860;2023-01-29T12:45:07;101701.72;;;4.78;84.56
42385;BME280;28042;43.986;22.860;2023-01-29T12:47:36;101707.84;;;4.80;83.78
42385;BME280;28042;43.986;22.860;2023-01-29T12:50:06;101709.41;;;4.83;82.87
42385;BME280;28042;43.986;22.860;2023-01-29T12:55:41;101704.63;;;4.87;83.33
42385;BME280;28042;43.986;22.860;2023-01-29T13:01:27;101701.97;;;5.06;82.88
42385;BME280;28042;43.986;22.860;2023-01-29T13:03:58;101702.66;;;4.98;81.88
42385;BME280;28042;43.986;22.860;2023-01-29T13:06:30;101700.47;;;5.23;81.74
42385;BME280;28042;43.986;22.860;2023-01-29T13:08:57;101705.59;;;5.35;82.02
42385;BME280;28042;43.986;22.860;2023-01-29T13:13:56;101709.63;;;5.51;80.12
42385;BME280;28042;43.986;22.860;2023-01-29T13:16:24;101705.63;;;5.64;79.96
42385;BME280;28042;43.986;22.860;2023-01-29T13:18:55;101703.94;;;5.63;78.37
42385;BME280;28042;43.986;22.860;2023-01-29T13:21:23;101713.63;;;5.66;77.80
42385;BME280;28042;43.986;22.860;2023-01-29T13:23:50;101710.34;;;5.53;78.63
42385;BME280;28042;43.986;22.860;2023-01-29T13:26:17;101702.75;;;5.47;77.95
42385;BME280;28042;43.986;22.860;2023-01-29T13:28:43;101710.44;;;5.32;77.61
42385;BME280;28042;43.986;22.860;2023-01-29T13:33:37;101714.44;;;5.37;79.77
42385;BME280;28042;43.986;22.860;2023-01-29T13:36:04;101721.53;;;5.38;81.26
42385;BME280;28042;43.986;22.860;2023-01-29T13:38:29;101716.72;;;5.42;82.12
42385;BME280;28042;43.986;22.860;2023-01-29T13:41:03;101725.50;;;5.25;80.33
42385;BME280;28042;43.986;22.860;2023-01-29T13:43:39;101716.06;;;5.09;80.60
42385;BME280;28042;43.986;22.860;2023-01-29T13:46:12;101714.91;;;5.02;80.57
42385;BME280;28042;43.986;22.860;2023-01-29T13:48:42;101714.88;;;4.93;81.09
42385;BME280;28042;43.986;22.860;2023-01-29T13:51:12;101725.97;;;4.90;79.93
42385;BME280;28042;43.986;22.860;2023-01-29T13:53:50;101721.97;;;4.94;80.59
42385;BME280;28042;43.986;22.860;2023-01-29T13:58:58;101722.53;;;4.88;79.38
42385;BME280;28042;43.986;22.860;2023-01-29T14:04:26;101740.38;;;4.69;80.25
42385;BME280;28042;43.986;22.860;2023-01-29T14:06:54;101740.63;;;4.66;81.62
42385;BME280;28042;43.986;22.860;2023-01-29T14:11:54;101733.84;;;4.51;82.79
42385;BME280;28042;43.986;22.860;2023-01-29T14:17:02;101745.94;;;4.47;84.41
42385;BME280;28042;43.986;22.860;2023-01-29T14:19:28;101742.75;;;4.42;84.74
42385;BME280;28042;43.986;22.860;2023-01-29T14:21:54;101744.34;;;4.44;85.61
42385;BME280;28042;43.986;22.860;2023-01-29T14:24:22;101740.53;;;4.47;86.14
42385;BME280;28042;43.986;22.860;2023-01-29T14:26:55;101743.69;;;4.52;86.94
42385;BME280;28042;43.986;22.860;2023-01-29T14:29:27;101747.13;;;4.54;87.19
42385;BME280;28042;43.986;22.860;2023-01-29T14:31:57;101745.66;;;4.50;89.49
42385;BME280;28042;43.986;22.860;2023-01-29T14:34:33;101751.22;;;4.28;86.29
42385;BME280;28042;43.986;22.860;2023-01-29T14:37:03;101751.50;;;4.13;85.37
42385;BME280;28042;43.986;22.860;2023-01-29T14:42:33;101748.41;;;3.97;85.84
42385;BME280;28042;43.986;22.860;2023-01-29T14:45:20;101750.38;;;3.95;86.38
42385;BME280;28042;43.986;22.860;2023-01-29T14:52:43;101752.28;;;3.83;88.86
42385;BME280;28042;43.986;22.860;2023-01-29T14:55:29;101758.03;;;3.79;90.66
42385;BME280;28042;43.986;22.860;2023-01-29T14:57:59;101759.31;;;3.63;92.55
42385;BME280;28042;43.986;22.860;2023-01-29T15:00:26;101760.81;;;3.56;93.50
42385;BME280;28042;43.986;22.860;2023-01-29T15:02:52;101770.38;;;3.49;93.83
42385;BME280;28042;43.986;22.860;2023-01-29T15:05:19;101765.22;;;3.46;94.80
42385;BME280;28042;43.986;22.860;2023-01-29T15:07:47;101758.13;;;3.45;95.40
42385;BME280;28042;43.986;22.860;2023-01-29T15:10:19;101768.91;;;3.45;96.42
42385;BME280;28042;43.986;22.860;2023-01-29T15:13:02;101763.78;;;3.42;96.04
42385;BME280;28042;43.986;22.860;2023-01-29T15:18:07;101775.81;;;3.27;97.51